createdAt,value
2018-05-17T00:00:49.838Z,0
2018-05-17T00:01:49.834Z,0
2018-05-17T00:02:49.017Z,0
2018-05-17T00:03:49.526Z,0
2018-05-17T00:04:49.245Z,0
2018-05-17T00:05:49.243Z,0
2018-05-17T00:06:49.483Z,0
2018-05-17T00:07:49.721Z,0
2018-05-17T00:08:49.192Z,0
2018-05-17T00:09:49.173Z,0
2018-05-17T00:10:48.893Z,0
2018-05-17T00:11:49.140Z,0
2018-05-17T00:12:48.867Z,0
2018-05-17T00:13:49.633Z,0
2018-05-17T00:14:49.093Z,0
2018-05-17T00:15:49.278Z,0
2018-05-17T00:16:49.597Z,0
2018-05-17T00:17:49.324Z,0
2018-05-17T00:18:49.307Z,0
2018-05-17T00:19:49.021Z,0
2018-05-17T00:20:49.272Z,0
2018-05-17T00:21:48.992Z,0
2018-05-17T00:22:48.976Z,0
2018-05-17T00:23:49.559Z,0
2018-05-17T00:24:48.897Z,0
2018-05-17T00:25:48.928Z,0
2018-05-17T00:26:49.437Z,0
2018-05-17T00:27:49.429Z,0
2018-05-17T00:28:49.416Z,0
2018-05-17T00:29:48.887Z,0
2018-05-17T00:30:48.862Z,0
2018-05-17T00:31:48.568Z,0
2018-05-17T00:32:49.092Z,0
2018-05-17T00:33:49.073Z,0
2018-05-17T00:34:48.800Z,0
2018-05-17T00:35:49.284Z,0
2018-05-17T00:36:48.765Z,0
2018-05-17T00:37:48.838Z,0
2018-05-17T00:38:48.486Z,0
2018-05-17T00:39:48.993Z,0
2018-05-17T00:40:48.486Z,0
2018-05-17T00:41:48.687Z,0
2018-05-17T00:42:48.674Z,0
2018-05-17T00:43:48.925Z,0
2018-05-17T00:44:48.900Z,0
2018-05-17T00:45:48.879Z,0
2018-05-17T00:46:48.335Z,0
2018-05-17T00:47:48.859Z,0
2018-05-17T00:48:49.115Z,0
2018-05-17T00:49:48.876Z,0
2018-05-17T00:50:48.555Z,0
2018-05-17T00:51:48.805Z,0
2018-05-17T00:52:48.787Z,0
2018-05-17T00:53:49.035Z,0
2018-05-17T00:54:48.767Z,0
2018-05-17T00:55:48.201Z,0
2018-05-17T00:56:48.715Z,0
2018-05-17T00:57:48.436Z,0
2018-05-17T00:58:48.689Z,0
2018-05-17T00:59:48.941Z,0
2018-05-17T01:00:48.919Z,0
2018-05-17T01:01:47.845Z,0
2018-05-17T01:02:48.635Z,0
2018-05-17T01:03:48.698Z,0
2018-05-17T01:04:48.594Z,0
2018-05-17T01:05:48.584Z,0
2018-05-17T01:06:48.035Z,0
2018-05-17T01:07:48.281Z,0
2018-05-17T01:08:48.284Z,0
2018-05-17T01:09:48.518Z,0
2018-05-17T01:10:48.228Z,0
2018-05-17T01:11:47.956Z,0
2018-05-17T01:12:48.531Z,0
2018-05-17T01:13:47.917Z,0
2018-05-17T01:14:48.708Z,0
2018-05-17T01:15:47.900Z,0
2018-05-17T01:16:48.428Z,0
2018-05-17T01:17:47.862Z,0
2018-05-17T01:18:48.378Z,0
2018-05-17T01:19:48.362Z,0
2018-05-17T01:20:47.817Z,0
2018-05-17T01:21:48.064Z,0
2018-05-17T01:22:48.046Z,0
2018-05-17T01:23:48.038Z,0
2018-05-17T01:24:48.292Z,0
2018-05-17T01:25:48.544Z,0
2018-05-17T01:26:47.727Z,0
2018-05-17T01:27:48.495Z,0
2018-05-17T01:28:48.223Z,0
2018-05-17T01:29:47.674Z,0
2018-05-17T01:30:47.660Z,0
2018-05-17T01:31:47.645Z,0
2018-05-17T01:32:48.162Z,0
2018-05-17T01:33:47.614Z,0
2018-05-17T01:34:47.857Z,0
2018-05-17T01:35:47.579Z,0
2018-05-17T01:36:47.575Z,0
2018-05-17T01:37:48.083Z,0
2018-05-17T01:38:48.060Z,0
2018-05-17T01:39:48.311Z,0
2018-05-17T01:40:47.776Z,0
2018-05-17T01:41:48.019Z,0
2018-05-17T01:42:47.751Z,0
2018-05-17T01:43:47.723Z,0
2018-05-17T01:44:47.973Z,0
2018-05-17T01:45:47.700Z,0
2018-05-17T01:46:47.674Z,0
2018-05-17T01:47:48.214Z,0
2018-05-17T01:48:47.647Z,0
2018-05-17T01:49:47.625Z,0
2018-05-17T01:50:47.618Z,0
2018-05-17T01:51:47.859Z,0
2018-05-17T01:52:47.052Z,0
2018-05-17T01:53:47.564Z,0
2018-05-17T01:54:47.548Z,0
2018-05-17T01:55:47.537Z,0
2018-05-17T01:56:47.788Z,0
2018-05-17T01:57:47.502Z,0
2018-05-17T01:58:47.751Z,0
2018-05-17T01:59:47.217Z,0
2018-05-17T02:00:47.454Z,0
2018-05-17T02:01:47.179Z,0
2018-05-17T02:02:47.427Z,0
2018-05-17T02:03:47.405Z,0
2018-05-17T02:04:47.660Z,0
2018-05-17T02:05:47.384Z,0
2018-05-17T02:06:47.634Z,0
2018-05-17T02:07:47.092Z,0
2018-05-17T02:08:47.330Z,0
2018-05-17T02:09:47.324Z,0
2018-05-17T02:10:47.312Z,0
2018-05-17T02:11:47.562Z,0
2018-05-17T02:12:47.543Z,0
2018-05-17T02:13:47.522Z,0
2018-05-17T02:14:47.768Z,0
2018-05-17T02:15:47.959Z,0
2018-05-17T02:16:47.474Z,0
2018-05-17T02:17:47.192Z,0
2018-05-17T02:18:47.446Z,0
2018-05-17T02:19:47.691Z,0
2018-05-17T02:20:47.412Z,0
2018-05-17T02:21:47.672Z,0
2018-05-17T02:22:47.654Z,0
2018-05-17T02:23:47.360Z,0
2018-05-17T02:24:47.349Z,0
2018-05-17T02:25:47.076Z,0
2018-05-17T02:26:47.096Z,0
2018-05-17T02:27:47.574Z,0
2018-05-17T02:28:47.296Z,0
2018-05-17T02:29:47.025Z,0
2018-05-17T02:30:46.999Z,0
2018-05-17T02:31:46.715Z,0
2018-05-17T02:32:46.960Z,0
2018-05-17T02:33:46.961Z,0
2018-05-17T02:34:47.455Z,0
2018-05-17T02:35:46.911Z,0
2018-05-17T02:36:47.172Z,0
2018-05-17T02:37:46.629Z,0
2018-05-17T02:38:47.410Z,0
2018-05-17T02:39:47.125Z,0
2018-05-17T02:40:47.120Z,0
2018-05-17T02:41:47.079Z,0
2018-05-17T02:42:47.087Z,0
2018-05-17T02:43:47.059Z,0
2018-05-17T02:44:47.042Z,0
2018-05-17T02:45:47.291Z,0
2018-05-17T02:46:46.746Z,0
2018-05-17T02:47:46.735Z,0
2018-05-17T02:48:46.979Z,0
2018-05-17T02:49:46.695Z,0
2018-05-17T02:50:46.421Z,0
2018-05-17T02:51:47.200Z,0
2018-05-17T02:52:46.654Z,0
2018-05-17T02:53:46.639Z,0
2018-05-17T02:54:47.202Z,0
2018-05-17T02:55:46.888Z,0
2018-05-17T02:56:46.580Z,0
2018-05-17T02:57:46.848Z,0
2018-05-17T02:58:46.552Z,0
2018-05-17T02:59:46.803Z,0
2018-05-17T03:00:47.057Z,0
2018-05-17T03:01:46.513Z,0
2018-05-17T03:02:47.019Z,0
2018-05-17T03:03:46.754Z,0
2018-05-17T03:04:46.459Z,0
2018-05-17T03:05:46.452Z,0
2018-05-17T03:06:46.695Z,0
2018-05-17T03:07:46.710Z,0
2018-05-17T03:08:46.393Z,0
2018-05-17T03:09:46.386Z,0
2018-05-17T03:10:46.383Z,0
2018-05-17T03:11:45.811Z,0
2018-05-17T03:12:46.345Z,0
2018-05-17T03:13:46.845Z,0
2018-05-17T03:14:46.299Z,0
2018-05-17T03:15:46.554Z,0
2018-05-17T03:16:46.261Z,0
2018-05-17T03:17:46.511Z,0
2018-05-17T03:18:46.776Z,0
2018-05-17T03:19:46.747Z,0
2018-05-17T03:20:46.782Z,0
2018-05-17T03:21:46.184Z,0
2018-05-17T03:22:46.178Z,0
2018-05-17T03:23:46.154Z,0
2018-05-17T03:24:46.667Z,0
2018-05-17T03:25:46.795Z,0
2018-05-17T03:26:46.110Z,0
2018-05-17T03:27:46.092Z,0
2018-05-17T03:28:46.611Z,0
2018-05-17T03:29:46.320Z,0
2018-05-17T03:30:46.054Z,0
2018-05-17T03:31:46.024Z,0
2018-05-17T03:32:46.013Z,0
2018-05-17T03:33:46.522Z,0
2018-05-17T03:34:45.973Z,0
2018-05-17T03:35:45.960Z,0
2018-05-17T03:36:46.211Z,0
2018-05-17T03:37:46.468Z,0
2018-05-17T03:38:46.181Z,0
2018-05-17T03:39:46.171Z,0
2018-05-17T03:40:45.883Z,0
2018-05-17T03:41:45.864Z,0
2018-05-17T03:42:46.124Z,0
2018-05-17T03:43:46.313Z,0
2018-05-17T03:44:46.347Z,0
2018-05-17T03:45:45.536Z,5
2018-05-17T03:46:45.791Z,5
2018-05-17T03:47:46.309Z,5
2018-05-17T03:48:46.026Z,5
2018-05-17T03:49:45.470Z,5
2018-05-17T03:50:45.454Z,5
2018-05-17T03:51:45.979Z,5
2018-05-17T03:52:45.688Z,5
2018-05-17T03:53:46.215Z,5
2018-05-17T03:54:45.920Z,5
2018-05-17T03:55:45.912Z,5
2018-05-17T03:56:45.888Z,5
2018-05-17T03:57:45.882Z,5
2018-05-17T03:58:45.076Z,5
2018-05-17T03:59:45.584Z,5
2018-05-17T04:00:45.563Z,5
2018-05-17T04:01:45.556Z,5
2018-05-17T04:02:45.267Z,5
2018-05-17T04:03:45.525Z,10
2018-05-17T04:04:45.773Z,10
2018-05-17T04:05:45.485Z,10
2018-05-17T04:06:45.730Z,10
2018-05-17T04:07:45.453Z,10
2018-05-17T04:08:45.554Z,10
2018-05-17T04:09:45.941Z,10
2018-05-17T04:10:45.673Z,10
2018-05-17T04:11:45.382Z,10
2018-05-17T04:12:44.842Z,10
2018-05-17T04:13:45.620Z,15
2018-05-17T04:14:45.088Z,15
2018-05-17T04:15:45.732Z,15
2018-05-17T04:16:45.597Z,15
2018-05-17T04:17:45.559Z,15
2018-05-17T04:18:45.298Z,15
2018-05-17T04:19:45.536Z,15
2018-05-17T04:20:45.772Z,15
2018-05-17T04:21:45.772Z,15
2018-05-17T04:22:45.476Z,15
2018-05-17T04:23:45.467Z,15
2018-05-17T04:24:45.458Z,15
2018-05-17T04:25:44.905Z,15
2018-05-17T04:26:44.887Z,15
2018-05-17T04:27:45.138Z,15
2018-05-17T04:28:45.119Z,15
2018-05-17T04:29:45.100Z,15
2018-05-17T04:30:45.089Z,15
2018-05-17T04:31:45.592Z,15
2018-05-17T04:32:44.523Z,20
2018-05-17T04:33:45.578Z,20
2018-05-17T04:34:44.764Z,20
2018-05-17T04:35:44.747Z,20
2018-05-17T04:36:44.993Z,20
2018-05-17T04:37:44.711Z,25
2018-05-17T04:38:44.967Z,25
2018-05-17T04:39:44.685Z,30
2018-05-17T04:40:44.672Z,30
2018-05-17T04:41:44.646Z,30
2018-05-17T04:42:44.904Z,30
2018-05-17T04:43:44.613Z,35
2018-05-17T04:44:44.867Z,35
2018-05-17T04:45:44.859Z,35
2018-05-17T04:46:44.828Z,35
2018-05-17T04:47:44.820Z,35
2018-05-17T04:48:45.080Z,35
2018-05-17T04:49:44.783Z,35
2018-05-17T04:50:44.785Z,35
2018-05-17T04:51:44.757Z,40
2018-05-17T04:52:45.011Z,40
2018-05-17T04:53:44.459Z,40
2018-05-17T04:54:45.432Z,40
2018-05-17T04:55:44.692Z,45
2018-05-17T04:56:44.684Z,45
2018-05-17T04:57:44.932Z,50
2018-05-17T04:58:44.379Z,45
2018-05-17T04:59:44.631Z,50
2018-05-17T05:00:44.614Z,50
2018-05-17T05:01:44.597Z,50
2018-05-17T05:02:45.183Z,50
2018-05-17T05:03:44.826Z,50
2018-05-17T05:04:44.817Z,50
2018-05-17T05:05:44.800Z,50
2018-05-17T05:06:44.527Z,50
2018-05-17T05:07:44.780Z,50
2018-05-17T05:08:44.494Z,55
2018-05-17T05:09:44.739Z,60
2018-05-17T05:10:44.747Z,60
2018-05-17T05:11:44.704Z,65
2018-05-17T05:12:44.957Z,60
2018-05-17T05:13:44.414Z,60
2018-05-17T05:14:43.859Z,60
2018-05-17T05:15:44.122Z,60
2018-05-17T05:16:44.626Z,60
2018-05-17T05:17:44.881Z,60
2018-05-17T05:18:44.327Z,60
2018-05-17T05:19:44.312Z,65
2018-05-17T05:20:44.555Z,65
2018-05-17T05:21:44.559Z,70
2018-05-17T05:22:44.004Z,75
2018-05-17T05:23:44.302Z,70
2018-05-17T05:24:44.765Z,75
2018-05-17T05:25:44.035Z,75
2018-05-17T05:26:43.947Z,70
2018-05-17T05:27:44.192Z,70
2018-05-17T05:28:43.643Z,70
2018-05-17T05:29:44.162Z,75
2018-05-17T05:30:43.611Z,75
2018-05-17T05:31:44.292Z,80
2018-05-17T05:32:44.148Z,80
2018-05-17T05:33:43.829Z,85
2018-05-17T05:34:44.086Z,80
2018-05-17T05:35:43.797Z,75
2018-05-17T05:36:44.046Z,85
2018-05-17T05:37:44.232Z,85
2018-05-17T05:38:44.299Z,90
2018-05-17T05:39:44.536Z,90
2018-05-17T05:40:43.983Z,80
2018-05-17T05:41:43.709Z,80
2018-05-17T05:42:43.953Z,80
2018-05-17T05:43:44.206Z,85
2018-05-17T05:44:44.186Z,80
2018-05-17T05:45:44.459Z,85
2018-05-17T05:46:43.904Z,90
2018-05-17T05:47:43.888Z,95
2018-05-17T05:48:43.595Z,90
2018-05-17T05:49:43.999Z,85
2018-05-17T05:50:43.833Z,90
2018-05-17T05:51:44.077Z,90
2018-05-17T05:52:44.348Z,90
2018-05-17T05:53:43.526Z,90
2018-05-17T05:54:43.509Z,105
2018-05-17T05:55:44.023Z,105
2018-05-17T05:56:44.273Z,105
2018-05-17T05:57:43.994Z,105
2018-05-17T05:58:44.001Z,100
2018-05-17T05:59:43.440Z,95
2018-05-17T06:00:43.942Z,95
2018-05-17T06:01:43.943Z,90
2018-05-17T06:02:43.406Z,105
2018-05-17T06:03:43.380Z,95
2018-05-17T06:04:43.899Z,105
2018-05-17T06:05:43.354Z,105
2018-05-17T06:06:44.135Z,100
2018-05-17T06:07:43.849Z,125
2018-05-17T06:08:43.835Z,105
2018-05-17T06:09:43.828Z,105
2018-05-17T06:10:43.536Z,115
2018-05-17T06:11:44.068Z,125
2018-05-17T06:12:43.571Z,115
2018-05-17T06:13:43.771Z,105
2018-05-17T06:14:43.752Z,105
2018-05-17T06:15:43.934Z,105
2018-05-17T06:16:43.446Z,105
2018-05-17T06:17:43.964Z,105
2018-05-17T06:18:43.681Z,130
2018-05-17T06:19:43.397Z,140
2018-05-17T06:20:43.388Z,140
2018-05-17T06:21:43.109Z,150
2018-05-17T06:22:43.890Z,150
2018-05-17T06:23:43.150Z,145
2018-05-17T06:24:43.592Z,140
2018-05-17T06:25:43.322Z,135
2018-05-17T06:26:43.566Z,130
2018-05-17T06:27:43.022Z,130
2018-05-17T06:28:43.535Z,125
2018-05-17T06:29:43.255Z,130
2018-05-17T06:30:43.504Z,135
2018-05-17T06:31:43.236Z,130
2018-05-17T06:32:43.797Z,135
2018-05-17T06:33:43.467Z,135
2018-05-17T06:34:42.915Z,125
2018-05-17T06:35:42.910Z,120
2018-05-17T06:36:42.901Z,125
2018-05-17T06:37:43.620Z,125
2018-05-17T06:38:42.597Z,130
2018-05-17T06:39:43.658Z,130
2018-05-17T06:40:42.837Z,130
2018-05-17T06:41:43.109Z,130
2018-05-17T06:42:43.644Z,140
2018-05-17T06:43:42.792Z,145
2018-05-17T06:44:43.146Z,150
2018-05-17T06:45:43.298Z,135
2018-05-17T06:46:43.029Z,130
2018-05-17T06:47:42.740Z,135
2018-05-17T06:48:42.725Z,145
2018-05-17T06:49:43.231Z,145
2018-05-17T06:50:42.688Z,140
2018-05-17T06:51:42.944Z,155
2018-05-17T06:52:42.932Z,165
2018-05-17T06:53:42.913Z,155
2018-05-17T06:54:42.638Z,135
2018-05-17T06:55:43.156Z,135
2018-05-17T06:56:43.143Z,140
2018-05-17T06:57:43.118Z,145
2018-05-17T06:58:42.575Z,160
2018-05-17T06:59:42.575Z,155
2018-05-17T07:00:43.061Z,155
2018-05-17T07:01:42.273Z,135
2018-05-17T07:02:42.539Z,130
2018-05-17T07:03:42.769Z,130
2018-05-17T07:04:42.759Z,135
2018-05-17T07:05:42.481Z,130
2018-05-17T07:06:43.259Z,130
2018-05-17T07:07:43.254Z,130
2018-05-17T07:08:42.965Z,145
2018-05-17T07:09:42.959Z,135
2018-05-17T07:10:42.848Z,120
2018-05-17T07:11:42.394Z,115
2018-05-17T07:12:42.923Z,115
2018-05-17T07:13:42.100Z,110
2018-05-17T07:14:42.622Z,125
2018-05-17T07:15:42.334Z,140
2018-05-17T07:16:42.328Z,190
2018-05-17T07:17:42.847Z,235
2018-05-17T07:18:45.380Z,240
2018-05-17T07:19:42.821Z,235
2018-05-17T07:20:42.811Z,210
2018-05-17T07:21:42.527Z,230
2018-05-17T07:22:42.507Z,255
2018-05-17T07:23:42.493Z,285
2018-05-17T07:24:43.024Z,395
2018-05-17T07:25:43.001Z,850
2018-05-17T07:26:41.919Z,350
2018-05-17T07:27:42.436Z,310
2018-05-17T07:28:42.696Z,255
2018-05-17T07:29:42.404Z,205
2018-05-17T07:30:42.397Z,245
2018-05-17T07:31:42.391Z,230
2018-05-17T07:32:42.639Z,460
2018-05-17T07:33:42.636Z,180
2018-05-17T07:34:42.347Z,175
2018-05-17T07:35:42.349Z,165
2018-05-17T07:36:42.331Z,135
2018-05-17T07:37:42.587Z,760
2018-05-17T07:38:42.564Z,190
2018-05-17T07:39:42.548Z,610
2018-05-17T07:40:42.280Z,220
2018-05-17T07:41:42.263Z,175
2018-05-17T07:42:42.270Z,1295
2018-05-17T07:43:42.237Z,345
2018-05-17T07:44:42.761Z,260
2018-05-17T07:45:42.212Z,1155
2018-05-17T07:46:42.632Z,585
2018-05-17T07:47:42.192Z,1395
2018-05-17T07:48:42.711Z,740
2018-05-17T07:49:42.703Z,1415
2018-05-17T07:50:42.697Z,1430
2018-05-17T07:51:42.150Z,1420
2018-05-17T07:52:41.877Z,1335
2018-05-17T07:53:42.672Z,210
2018-05-17T07:54:42.388Z,185
2018-05-17T07:55:42.012Z,140
2018-05-17T07:56:42.367Z,125
2018-05-17T07:57:42.101Z,130
2018-05-17T07:58:42.091Z,150
2018-05-17T07:59:42.077Z,165
2018-05-17T08:00:42.518Z,255
2018-05-17T08:01:42.067Z,175
2018-05-17T08:02:41.521Z,170
2018-05-17T08:03:41.506Z,220
2018-05-17T08:04:42.031Z,330
2018-05-17T08:05:42.023Z,345
2018-05-17T08:06:42.532Z,260
2018-05-17T08:07:42.264Z,375
2018-05-17T08:08:42.246Z,295
2018-05-17T08:09:41.710Z,360
2018-05-17T08:10:41.979Z,435
2018-05-17T08:11:41.689Z,1430
2018-05-17T08:12:42.205Z,1465
2018-05-17T08:13:41.935Z,1485
2018-05-17T08:14:41.925Z,1515
2018-05-17T08:15:41.646Z,1420
2018-05-17T08:16:42.105Z,1365
2018-05-17T08:17:42.166Z,1390
2018-05-17T08:18:42.151Z,1470
2018-05-17T08:19:42.150Z,1450
2018-05-17T08:20:41.621Z,1440
2018-05-17T08:21:42.123Z,1450
2018-05-17T08:22:42.138Z,1545
2018-05-17T08:23:41.588Z,1640
2018-05-17T08:24:41.309Z,1400
2018-05-17T08:25:41.302Z,1720
2018-05-17T08:26:42.364Z,1105
2018-05-17T08:27:41.568Z,655
2018-05-17T08:28:41.831Z,300
2018-05-17T08:29:41.819Z,265
2018-05-17T08:30:41.808Z,235
2018-05-17T08:31:41.811Z,215
2018-05-17T08:32:42.069Z,250
2018-05-17T08:33:41.800Z,415
2018-05-17T08:34:41.792Z,295
2018-05-17T08:35:42.047Z,255
2018-05-17T08:36:42.767Z,310
2018-05-17T08:37:41.778Z,185
2018-05-17T08:38:41.762Z,160
2018-05-17T08:39:42.034Z,160
2018-05-17T08:40:42.274Z,255
2018-05-17T08:41:42.266Z,340
2018-05-17T08:42:42.269Z,265
2018-05-17T08:43:41.769Z,235
2018-05-17T08:44:41.715Z,235
2018-05-17T08:45:41.863Z,1090
2018-05-17T08:46:41.965Z,265
2018-05-17T08:47:41.685Z,225
2018-05-17T08:48:41.945Z,185
2018-05-17T08:49:41.934Z,195
2018-05-17T08:50:41.915Z,215
2018-05-17T08:51:42.181Z,185
2018-05-17T08:52:41.912Z,215
2018-05-17T08:53:41.639Z,250
2018-05-17T08:54:41.372Z,185
2018-05-17T08:55:42.152Z,195
2018-05-17T08:56:41.349Z,275
2018-05-17T08:57:41.584Z,175
2018-05-17T08:58:41.311Z,270
2018-05-17T08:59:41.869Z,185
2018-05-17T09:00:41.286Z,190
2018-05-17T09:01:41.545Z,180
2018-05-17T09:02:42.067Z,185
2018-05-17T09:03:41.788Z,175
2018-05-17T09:04:42.048Z,230
2018-05-17T09:05:41.764Z,230
2018-05-17T09:06:41.839Z,205
2018-05-17T09:07:41.221Z,200
2018-05-17T09:08:41.481Z,185
2018-05-17T09:09:41.195Z,170
2018-05-17T09:10:41.450Z,165
2018-05-17T09:11:41.166Z,190
2018-05-17T09:12:41.946Z,245
2018-05-17T09:13:41.708Z,195
2018-05-17T09:14:41.404Z,370
2018-05-17T09:15:41.121Z,340
2018-05-17T09:16:41.650Z,340
2018-05-17T09:17:41.622Z,210
2018-05-17T09:18:41.619Z,225
2018-05-17T09:19:41.608Z,265
2018-05-17T09:20:42.214Z,265
2018-05-17T09:21:41.859Z,270
2018-05-17T09:22:41.580Z,235
2018-05-17T09:23:41.571Z,325
2018-05-17T09:24:41.574Z,340
2018-05-17T09:25:41.019Z,325
2018-05-17T09:26:41.526Z,355
2018-05-17T09:27:41.516Z,420
2018-05-17T09:28:41.241Z,335
2018-05-17T09:29:41.754Z,295
2018-05-17T09:30:41.481Z,305
2018-05-17T09:31:41.744Z,235
2018-05-17T09:32:40.929Z,235
2018-05-17T09:33:40.936Z,275
2018-05-17T09:34:41.701Z,260
2018-05-17T09:35:41.233Z,305
2018-05-17T09:36:41.413Z,285
2018-05-17T09:37:41.135Z,215
2018-05-17T09:38:41.124Z,190
2018-05-17T09:39:40.908Z,205
2018-05-17T09:40:41.118Z,210
2018-05-17T09:41:41.356Z,215
2018-05-17T09:42:41.619Z,235
2018-05-17T09:43:41.343Z,265
2018-05-17T09:44:40.807Z,245
2018-05-17T09:45:41.045Z,265
2018-05-17T09:46:41.313Z,295
2018-05-17T09:47:41.558Z,350
2018-05-17T09:48:41.028Z,385
2018-05-17T09:49:41.268Z,320
2018-05-17T09:50:41.515Z,385
2018-05-17T09:51:41.252Z,425
2018-05-17T09:52:40.962Z,430
2018-05-17T09:53:41.242Z,300
2018-05-17T09:54:40.946Z,250
2018-05-17T09:55:41.202Z,265
2018-05-17T09:56:40.655Z,260
2018-05-17T09:57:40.653Z,250
2018-05-17T09:58:40.919Z,300
2018-05-17T09:59:40.627Z,360
2018-05-17T10:00:41.154Z,340
2018-05-17T10:01:41.415Z,340
2018-05-17T10:02:41.133Z,310
2018-05-17T10:03:41.112Z,300
2018-05-17T10:04:41.102Z,220
2018-05-17T10:05:40.828Z,245
2018-05-17T10:06:40.339Z,190
2018-05-17T10:07:40.805Z,190
2018-05-17T10:08:40.800Z,200
2018-05-17T10:09:41.055Z,205
2018-05-17T10:10:41.045Z,250
2018-05-17T10:11:40.275Z,255
2018-05-17T10:12:40.747Z,295
2018-05-17T10:13:40.212Z,350
2018-05-17T10:14:40.879Z,365
2018-05-17T10:15:40.905Z,445
2018-05-17T10:16:41.440Z,2015
2018-05-17T10:17:40.701Z,275
2018-05-17T10:18:40.690Z,1920
2018-05-17T10:19:40.942Z,1090
2018-05-17T10:20:41.199Z,250
2018-05-17T10:21:40.931Z,2020
2018-05-17T10:22:40.378Z,2050
2018-05-17T10:23:40.648Z,1550
2018-05-17T10:24:40.638Z,1350
2018-05-17T10:25:40.375Z,2140
2018-05-17T10:26:40.890Z,2140
2018-05-17T10:27:40.632Z,2075
2018-05-17T10:28:40.621Z,2075
2018-05-17T10:29:40.448Z,2015
2018-05-17T10:30:40.611Z,2010
2018-05-17T10:31:40.863Z,2020
2018-05-17T10:32:41.128Z,2035
2018-05-17T10:33:40.330Z,2110
2018-05-17T10:34:40.396Z,2170
2018-05-17T10:35:40.856Z,2160
2018-05-17T10:36:40.321Z,2105
2018-05-17T10:37:40.848Z,2125
2018-05-17T10:38:40.847Z,2130
2018-05-17T10:39:41.111Z,2135
2018-05-17T10:40:40.053Z,2070
2018-05-17T10:41:40.851Z,2045
2018-05-17T10:42:40.583Z,2040
2018-05-17T10:43:40.841Z,2065
2018-05-17T10:44:40.310Z,2105
2018-05-17T10:45:40.312Z,2070
2018-05-17T10:46:40.841Z,1585
2018-05-17T10:47:40.842Z,2090
2018-05-17T10:48:40.840Z,2090
2018-05-17T10:49:40.855Z,2100
2018-05-17T10:50:40.843Z,2080
2018-05-17T10:51:40.846Z,2110
2018-05-17T10:52:40.848Z,2065
2018-05-17T10:53:40.587Z,2090
2018-05-17T10:54:40.806Z,2105
2018-05-17T10:55:40.064Z,2045
2018-05-17T10:56:40.864Z,2035
2018-05-17T10:57:41.013Z,2005
2018-05-17T10:58:40.867Z,2030
2018-05-17T10:59:40.328Z,2100
2018-05-17T11:00:40.590Z,2190
2018-05-17T11:01:40.599Z,2175
2018-05-17T11:02:41.775Z,2085
2018-05-17T11:03:40.882Z,2045
2018-05-17T11:04:40.611Z,2040
2018-05-17T11:05:40.623Z,2035
2018-05-17T11:06:40.879Z,2060
2018-05-17T11:07:40.083Z,2065
2018-05-17T11:08:40.626Z,1950
2018-05-17T11:09:40.902Z,1920
2018-05-17T11:10:40.648Z,1825
2018-05-17T11:11:40.366Z,1845
2018-05-17T11:12:41.174Z,1890
2018-05-17T11:13:40.688Z,1935
2018-05-17T11:14:40.651Z,1935
2018-05-17T11:15:41.169Z,1890
2018-05-17T11:16:40.905Z,1765
2018-05-17T11:17:40.922Z,1755
2018-05-17T11:18:40.392Z,1885
2018-05-17T11:19:40.930Z,2000
2018-05-17T11:20:40.915Z,2110
2018-05-17T11:21:40.922Z,2200
2018-05-17T11:22:40.940Z,2190
2018-05-17T11:23:40.406Z,2150
2018-05-17T11:24:40.411Z,2060
2018-05-17T11:25:40.733Z,1945
2018-05-17T11:26:40.405Z,1825
2018-05-17T11:27:40.701Z,1770
2018-05-17T11:28:40.416Z,1850
2018-05-17T11:29:40.686Z,1930
2018-05-17T11:30:40.692Z,1960
2018-05-17T11:31:40.955Z,1970
2018-05-17T11:32:40.701Z,1995
2018-05-17T11:33:40.784Z,2025
2018-05-17T11:34:40.715Z,2075
2018-05-17T11:35:40.986Z,2130
2018-05-17T11:36:40.979Z,2120
2018-05-17T11:37:41.246Z,2020
2018-05-17T11:38:41.549Z,1980
2018-05-17T11:39:41.004Z,1955
2018-05-17T11:40:40.731Z,1875
2018-05-17T11:41:40.997Z,1930
2018-05-17T11:42:40.467Z,1980
2018-05-17T11:43:41.262Z,2050
2018-05-17T11:44:40.746Z,2105
2018-05-17T11:45:41.021Z,2095
2018-05-17T11:46:40.754Z,2075
2018-05-17T11:47:41.029Z,2080
2018-05-17T11:48:40.497Z,2040
2018-05-17T11:49:41.024Z,2060
2018-05-17T11:50:40.505Z,2090
2018-05-17T11:51:40.501Z,2105
2018-05-17T11:52:40.775Z,2135
2018-05-17T11:53:40.784Z,2150
2018-05-17T11:54:40.795Z,2130
2018-05-17T11:55:41.065Z,2165
2018-05-17T11:56:41.060Z,2085
2018-05-17T11:57:40.530Z,2015
2018-05-17T11:58:40.804Z,2010
2018-05-17T11:59:41.346Z,1995
2018-05-17T12:00:40.817Z,2035
2018-05-17T12:01:41.486Z,2030
2018-05-17T12:02:41.284Z,2010
2018-05-17T12:03:41.103Z,1950
2018-05-17T12:04:41.372Z,2000
2018-05-17T12:05:41.365Z,2015
2018-05-17T12:06:40.570Z,2010
2018-05-17T12:07:41.257Z,1990
2018-05-17T12:08:41.379Z,1995
2018-05-17T12:09:41.127Z,1965
2018-05-17T12:10:40.851Z,1960
2018-05-17T12:11:41.383Z,1985
2018-05-17T12:12:40.874Z,2085
2018-05-17T12:13:40.857Z,2160
2018-05-17T12:14:40.599Z,2175
2018-05-17T12:15:41.401Z,2135
2018-05-17T12:16:41.084Z,2080
2018-05-17T12:17:41.164Z,2015
2018-05-17T12:18:41.148Z,1980
2018-05-17T12:19:41.157Z,1940
2018-05-17T12:20:40.912Z,1930
2018-05-17T12:21:41.168Z,1930
2018-05-17T12:22:41.167Z,1935
2018-05-17T12:23:41.171Z,1970
2018-05-17T12:24:41.178Z,1975
2018-05-17T12:25:40.919Z,1995
2018-05-17T12:26:40.928Z,1995
2018-05-17T12:27:40.661Z,2010
2018-05-17T12:28:40.935Z,2015
2018-05-17T12:29:41.464Z,2045
2018-05-17T12:30:40.937Z,2105
2018-05-17T12:31:41.441Z,2055
2018-05-17T12:32:41.217Z,2065
2018-05-17T12:33:41.504Z,2055
2018-05-17T12:34:40.703Z,2080
2018-05-17T12:35:41.474Z,2055
2018-05-17T12:36:40.973Z,2025
2018-05-17T12:37:40.449Z,2050
2018-05-17T12:38:40.975Z,2050
2018-05-17T12:39:41.255Z,2045
2018-05-17T12:40:41.003Z,2055
2018-05-17T12:41:41.534Z,2055
2018-05-17T12:42:41.092Z,2055
2018-05-17T12:43:40.739Z,2030
2018-05-17T12:44:40.743Z,2005
2018-05-17T12:45:41.016Z,1960
2018-05-17T12:46:41.030Z,1945
2018-05-17T12:47:41.294Z,1925
2018-05-17T12:48:41.292Z,1910
2018-05-17T12:49:41.294Z,1875
2018-05-17T12:50:41.301Z,1880
2018-05-17T12:51:41.716Z,1880
2018-05-17T12:52:41.316Z,1870
2018-05-17T12:53:41.331Z,1895
2018-05-17T12:54:41.061Z,1905
2018-05-17T12:55:41.340Z,1910
2018-05-17T12:56:41.367Z,1925
2018-05-17T12:57:40.821Z,1930
2018-05-17T12:58:41.393Z,1940
2018-05-17T12:59:41.352Z,1895
2018-05-17T13:00:41.097Z,1860
2018-05-17T13:01:41.090Z,1860
2018-05-17T13:02:41.831Z,1900
2018-05-17T13:03:41.378Z,1890
2018-05-17T13:04:41.114Z,1870
2018-05-17T13:05:41.658Z,1835
2018-05-17T13:06:41.122Z,1830
2018-05-17T13:07:40.881Z,1855
2018-05-17T13:08:41.413Z,1860
2018-05-17T13:09:41.401Z,1840
2018-05-17T13:10:41.139Z,1835
2018-05-17T13:11:41.412Z,1845
2018-05-17T13:12:41.428Z,1855
2018-05-17T13:13:41.167Z,1850
2018-05-17T13:14:41.165Z,1860
2018-05-17T13:15:40.635Z,1865
2018-05-17T13:16:41.433Z,1895
2018-05-17T13:17:41.659Z,1910
2018-05-17T13:18:41.269Z,1910
2018-05-17T13:19:41.219Z,1970
2018-05-17T13:20:40.960Z,1960
2018-05-17T13:21:41.338Z,1945
2018-05-17T13:22:41.760Z,1895
2018-05-17T13:23:41.274Z,1860
2018-05-17T13:24:41.497Z,1805
2018-05-17T13:25:41.508Z,1745
2018-05-17T13:26:41.828Z,1650
2018-05-17T13:27:41.297Z,1580
2018-05-17T13:28:40.750Z,1595
2018-05-17T13:29:41.514Z,1665
2018-05-17T13:30:41.832Z,1765
2018-05-17T13:31:41.319Z,1845
2018-05-17T13:32:41.408Z,1845
2018-05-17T13:33:41.310Z,1805
2018-05-17T13:34:41.310Z,1775
2018-05-17T13:35:41.273Z,1755
2018-05-17T13:36:41.342Z,1725
2018-05-17T13:37:42.367Z,1725
2018-05-17T13:38:41.646Z,1695
2018-05-17T13:39:41.342Z,1710
2018-05-17T13:40:41.379Z,1730
2018-05-17T13:41:41.358Z,1735
2018-05-17T13:42:41.100Z,1775
2018-05-17T13:43:41.732Z,1785
2018-05-17T13:44:41.354Z,1795
2018-05-17T13:45:41.610Z,1765
2018-05-17T13:46:41.221Z,1750
2018-05-17T13:47:42.023Z,1665
2018-05-17T13:48:41.632Z,1565
2018-05-17T13:49:41.349Z,1495
2018-05-17T13:50:41.104Z,1525
2018-05-17T13:51:41.717Z,1585
2018-05-17T13:52:41.339Z,1635
2018-05-17T13:53:41.762Z,1650
2018-05-17T13:54:41.690Z,1645
2018-05-17T13:55:41.636Z,1705
2018-05-17T13:56:41.766Z,1740
2018-05-17T13:57:41.484Z,1690
2018-05-17T13:58:41.623Z,1680